createdAt,value
2023-07-20T00:02:50.890Z,99.99
2023-07-20T00:03:50.814Z,99.99
2023-07-20T00:04:50.757Z,99.99
2023-07-20T00:05:50.764Z,99.99
2023-07-20T00:06:50.751Z,99.99
2023-07-20T00:07:50.726Z,99.99
2023-07-20T00:08:50.716Z,99.99
2023-07-20T00:09:50.706Z,99.99
2023-07-20T00:10:50.718Z,99.99
2023-07-20T00:11:50.690Z,99.99
2023-07-20T00:12:50.683Z,99.99
2023-07-20T00:13:50.674Z,99.99
2023-07-20T00:14:50.667Z,99.99
2023-07-20T00:15:50.649Z,99.99
2023-07-20T00:16:50.661Z,99.99
2023-07-20T00:17:50.631Z,99.99
2023-07-20T00:18:50.632Z,99.99
2023-07-20T00:19:50.606Z,99.99
2023-07-20T00:20:50.567Z,99.99
2023-07-20T00:21:50.561Z,99.99
2023-07-20T00:22:50.592Z,99.99
2023-07-20T00:23:50.536Z,99.99
2023-07-20T00:24:50.532Z,99.99
2023-07-20T00:25:50.544Z,99.99
2023-07-20T00:26:50.603Z,99.99
2023-07-20T00:27:50.512Z,99.99
2023-07-20T00:28:50.482Z,99.99
2023-07-20T00:29:50.469Z,99.99
2023-07-20T00:30:50.545Z,99.99
2023-07-20T00:31:51.862Z,99.99
2023-07-20T00:32:50.488Z,99.99
2023-07-20T00:33:50.439Z,99.99
2023-07-20T00:34:50.440Z,99.99
2023-07-20T00:35:50.421Z,99.99
2023-07-20T00:36:50.414Z,99.99
2023-07-20T00:37:50.382Z,99.99
2023-07-20T00:38:50.382Z,99.99
2023-07-20T00:39:50.391Z,99.99
2023-07-20T00:40:50.350Z,99.99
2023-07-20T00:41:50.337Z,99.99
2023-07-20T00:42:50.334Z,99.99
2023-07-20T00:43:50.308Z,99.99
2023-07-20T00:44:50.299Z,99.99
2023-07-20T00:45:50.328Z,99.99
2023-07-20T00:46:50.356Z,99.99
2023-07-20T00:47:50.327Z,99.99
2023-07-20T00:48:50.259Z,99.99
2023-07-20T00:49:50.261Z,99.99
2023-07-20T00:50:50.262Z,99.99
2023-07-20T00:51:50.239Z,99.99
2023-07-20T00:52:50.214Z,99.99
2023-07-20T00:53:50.217Z,99.99
2023-07-20T00:54:50.207Z,99.99
2023-07-20T00:55:50.186Z,99.99
2023-07-20T00:56:50.202Z,99.99
2023-07-20T00:57:50.161Z,99.99
2023-07-20T00:58:50.145Z,99.99
2023-07-20T00:59:50.140Z,99.99
2023-07-20T01:00:50.130Z,99.99
2023-07-20T01:01:50.187Z,99.99
2023-07-20T01:02:50.215Z,99.99
2023-07-20T01:03:50.142Z,99.99
2023-07-20T01:04:50.082Z,99.99
2023-07-20T01:05:50.076Z,99.99
2023-07-20T01:06:50.085Z,99.99
2023-07-20T01:07:50.054Z,99.99
2023-07-20T01:08:50.060Z,99.99
2023-07-20T01:09:50.028Z,99.99
2023-07-20T01:10:50.018Z,99.99
2023-07-20T01:11:50.006Z,99.99
2023-07-20T01:12:49.994Z,99.99
2023-07-20T01:13:49.980Z,99.99
2023-07-20T01:14:49.992Z,99.99
2023-07-20T01:15:49.957Z,99.99
2023-07-20T01:16:50.052Z,99.99
2023-07-20T01:17:49.957Z,99.99
2023-07-20T01:18:49.946Z,99.99
2023-07-20T01:19:49.925Z,99.99
2023-07-20T01:20:49.927Z,99.99
2023-07-20T01:21:49.895Z,99.99
2023-07-20T01:22:50.012Z,99.99
2023-07-20T01:23:49.993Z,99.99
2023-07-20T01:24:49.859Z,99.99
2023-07-20T01:25:49.865Z,99.99
2023-07-20T01:26:49.842Z,99.99
2023-07-20T01:27:49.833Z,99.99
2023-07-20T01:28:49.825Z,99.99
2023-07-20T01:29:49.809Z,99.99
2023-07-20T01:30:49.807Z,99.99
2023-07-20T01:31:49.823Z,99.99
2023-07-20T01:32:49.884Z,99.99
2023-07-20T01:33:49.769Z,99.99
2023-07-20T01:34:49.750Z,99.99
2023-07-20T01:35:49.740Z,99.99
2023-07-20T01:36:49.732Z,99.99
2023-07-20T01:37:49.716Z,99.99
2023-07-20T01:38:49.748Z,99.99
2023-07-20T01:39:49.694Z,99.99
2023-07-20T01:40:49.681Z,99.99
2023-07-20T01:41:49.675Z,99.99
2023-07-20T01:42:49.667Z,99.99
2023-07-20T01:43:49.661Z,99.99
2023-07-20T01:44:49.640Z,99.99
2023-07-20T01:45:49.667Z,99.99
2023-07-20T01:46:49.638Z,99.99
2023-07-20T01:47:49.696Z,99.99
2023-07-20T01:48:49.649Z,99.99
2023-07-20T01:49:49.582Z,99.99
2023-07-20T01:50:49.580Z,99.99
2023-07-20T01:51:49.582Z,99.99
2023-07-20T01:52:49.556Z,99.99
2023-07-20T01:53:49.548Z,99.99
2023-07-20T01:54:49.560Z,99.99
2023-07-20T01:55:49.521Z,99.99
2023-07-20T01:56:49.509Z,99.99
2023-07-20T01:57:49.506Z,99.99
2023-07-20T01:58:49.497Z,99.99
2023-07-20T01:59:49.469Z,99.99
2023-07-20T02:00:49.474Z,99.99
2023-07-20T02:01:49.515Z,99.99
2023-07-20T02:02:49.492Z,99.99
2023-07-20T02:03:49.430Z,99.99
2023-07-20T02:04:49.461Z,99.99
2023-07-20T02:05:49.410Z,99.99
2023-07-20T02:06:49.411Z,99.99
2023-07-20T02:07:49.413Z,99.99
2023-07-20T02:08:49.382Z,99.99
2023-07-20T02:09:49.379Z,99.99
2023-07-20T02:10:49.389Z,99.99
2023-07-20T02:11:49.348Z,99.99
2023-07-20T02:12:49.332Z,99.99
2023-07-20T02:13:49.322Z,99.99
2023-07-20T02:14:49.348Z,99.99
2023-07-20T02:15:49.329Z,99.99
2023-07-20T02:16:49.286Z,99.99
2023-07-20T02:17:49.291Z,99.99
2023-07-20T02:18:49.264Z,99.99
2023-07-20T02:19:49.266Z,99.99
2023-07-20T02:20:49.244Z,99.99
2023-07-20T02:21:49.232Z,99.99
2023-07-20T02:22:49.284Z,99.99
2023-07-20T02:23:49.209Z,99.99
2023-07-20T02:24:49.195Z,99.99
2023-07-20T02:25:49.197Z,99.99
2023-07-20T02:26:49.202Z,99.99
2023-07-20T02:27:49.166Z,99.99
2023-07-20T02:28:49.152Z,99.99
2023-07-20T02:29:49.162Z,99.99
2023-07-20T02:30:49.140Z,99.99
2023-07-20T02:31:49.193Z,99.99
2023-07-20T02:32:49.201Z,99.99
2023-07-20T02:33:49.093Z,99.99
2023-07-20T02:34:49.090Z,99.99
2023-07-20T02:35:49.072Z,99.99
2023-07-20T02:36:49.076Z,99.99
2023-07-20T02:37:49.050Z,99.99
2023-07-20T02:38:49.046Z,99.99
2023-07-20T02:39:49.029Z,99.99
2023-07-20T02:40:49.037Z,99.99
2023-07-20T02:41:49.025Z,99.99
2023-07-20T02:42:49.021Z,99.99
2023-07-20T02:43:48.990Z,99.99
2023-07-20T02:44:48.973Z,99.99
2023-07-20T02:45:48.968Z,99.99
2023-07-20T02:46:49.032Z,99.99
2023-07-20T02:47:48.972Z,99.99
2023-07-20T02:48:48.932Z,99.99
2023-07-20T02:49:48.921Z,99.99
2023-07-20T02:50:48.931Z,99.99
2023-07-20T02:51:48.900Z,99.99
2023-07-20T02:52:48.917Z,99.99
2023-07-20T02:53:48.878Z,99.99
2023-07-20T02:54:48.883Z,99.99
2023-07-20T02:55:48.850Z,99.99
2023-07-20T02:56:48.838Z,99.99
2023-07-20T02:57:48.897Z,99.99
2023-07-20T02:58:48.853Z,99.99
2023-07-20T02:59:48.832Z,99.99
2023-07-20T03:00:48.863Z,99.99
2023-07-20T03:01:48.787Z,99.99
2023-07-20T03:02:48.892Z,99.99
2023-07-20T03:03:48.889Z,99.99
2023-07-20T03:04:48.759Z,99.99
2023-07-20T03:05:48.751Z,99.99
2023-07-20T03:06:48.773Z,99.99
2023-07-20T03:07:48.721Z,99.99
2023-07-20T03:08:48.706Z,99.99
2023-07-20T03:09:48.697Z,99.99
2023-07-20T03:10:48.705Z,99.99
2023-07-20T03:11:48.683Z,99.99
2023-07-20T03:12:48.668Z,99.99
2023-07-20T03:13:48.647Z,99.99
2023-07-20T03:14:48.682Z,99.99
2023-07-20T03:15:48.630Z,99.99
2023-07-20T03:16:48.649Z,99.99
2023-07-20T03:17:48.664Z,99.99
2023-07-20T03:18:48.599Z,99.99
2023-07-20T03:19:48.577Z,99.99
2023-07-20T03:20:48.567Z,99.99
2023-07-20T03:21:48.584Z,99.99
2023-07-20T03:22:48.618Z,99.99
2023-07-20T03:23:48.550Z,99.99
2023-07-20T03:24:48.523Z,99.99
2023-07-20T03:25:48.515Z,99.99
2023-07-20T03:26:48.502Z,99.99
2023-07-20T03:27:48.514Z,99.99
2023-07-20T03:28:48.490Z,99.99
2023-07-20T03:29:48.493Z,99.99
2023-07-20T03:30:48.556Z,99.99
2023-07-20T03:31:48.466Z,99.99
2023-07-20T03:32:48.501Z,99.99
2023-07-20T03:33:48.437Z,99.99
2023-07-20T03:34:48.419Z,99.99
2023-07-20T03:35:48.421Z,99.99
2023-07-20T03:36:48.415Z,99.99
2023-07-20T03:37:48.385Z,99.99
2023-07-20T03:38:48.370Z,99.99
2023-07-20T03:39:48.364Z,99.99
2023-07-20T03:40:48.346Z,99.99
2023-07-20T03:41:48.346Z,99.99
2023-07-20T03:42:48.319Z,99.99
2023-07-20T03:43:48.310Z,99.99
2023-07-20T03:44:48.302Z,99.99
2023-07-20T03:45:48.293Z,99.99
2023-07-20T03:46:48.379Z,99.99
2023-07-20T03:47:48.397Z,99.99
2023-07-20T03:48:48.252Z,99.99
2023-07-20T03:49:48.245Z,99.99
2023-07-20T03:50:48.329Z,99.99
2023-07-20T03:51:48.253Z,99.99
2023-07-20T03:52:48.218Z,99.99
2023-07-20T03:53:48.214Z,99.99
2023-07-20T03:54:48.201Z,99.99
2023-07-20T03:55:48.188Z,99.99
2023-07-20T03:56:48.172Z,99.99
2023-07-20T03:57:48.221Z,99.99
2023-07-20T03:58:48.169Z,99.99
2023-07-20T03:59:48.138Z,99.99
2023-07-20T04:00:48.146Z,99.99
2023-07-20T04:01:48.156Z,99.99
2023-07-20T04:02:48.195Z,99.99
2023-07-20T04:03:49.936Z,99.99
2023-07-20T04:04:48.090Z,99.99
2023-07-20T04:05:48.106Z,99.99
2023-07-20T04:06:48.055Z,99.99
2023-07-20T04:07:48.074Z,99.99
2023-07-20T04:08:48.061Z,99.99
2023-07-20T04:09:48.032Z,99.99
2023-07-20T04:10:48.029Z,99.99
2023-07-20T04:11:48.008Z,99.99
2023-07-20T04:12:47.996Z,99.99
2023-07-20T04:13:48.001Z,99.99
2023-07-20T04:14:47.977Z,99.99
2023-07-20T04:15:47.962Z,99.99
2023-07-20T04:16:47.968Z,99.99
2023-07-20T04:17:47.969Z,99.99
2023-07-20T04:18:47.964Z,99.99
2023-07-20T04:19:47.916Z,99.99
2023-07-20T04:20:47.911Z,99.99
2023-07-20T04:21:47.917Z,99.99
2023-07-20T04:22:47.926Z,99.99
2023-07-20T04:23:47.880Z,99.99
2023-07-20T04:24:47.879Z,99.99
2023-07-20T04:25:47.844Z,99.99
2023-07-20T04:26:47.849Z,99.99
2023-07-20T04:27:47.832Z,99.99
2023-07-20T04:28:47.816Z,99.99
2023-07-20T04:29:47.799Z,99.99
2023-07-20T04:30:47.801Z,99.99
2023-07-20T04:31:47.876Z,99.99
2023-07-20T04:32:48.300Z,99.99
2023-07-20T04:33:47.767Z,99.99
2023-07-20T04:34:47.775Z,99.99
2023-07-20T04:35:47.750Z,99.99
2023-07-20T04:36:47.877Z,99.99
2023-07-20T04:37:47.712Z,99.99
2023-07-20T04:38:47.706Z,99.99
2023-07-20T04:39:47.710Z,99.99
2023-07-20T04:40:47.681Z,99.67
2023-07-20T04:41:47.687Z,99.99
2023-07-20T04:42:47.658Z,99.99
2023-07-20T04:43:47.713Z,99.99
2023-07-20T04:44:47.641Z,99.99
2023-07-20T04:45:47.631Z,99.99
2023-07-20T04:46:47.751Z,99.99
2023-07-20T04:47:47.649Z,99.99
2023-07-20T04:48:47.678Z,99.99
2023-07-20T04:49:47.596Z,99.99
2023-07-20T04:50:47.684Z,99.99
2023-07-20T04:51:47.601Z,99.99
2023-07-20T04:52:47.569Z,99.99
2023-07-20T04:53:47.562Z,99.99
2023-07-20T04:54:47.532Z,99.99
2023-07-20T04:55:47.523Z,99.99
2023-07-20T04:56:48.501Z,99.99
2023-07-20T04:57:47.515Z,99.99
2023-07-20T04:58:47.499Z,99.99
2023-07-20T04:59:47.498Z,99.99
2023-07-20T05:00:47.462Z,99.99
2023-07-20T05:01:47.523Z,99.99
2023-07-20T05:02:47.569Z,99.99
2023-07-20T05:03:47.880Z,99.99
2023-07-20T05:04:47.429Z,99.99
2023-07-20T05:05:49.597Z,99.99
2023-07-20T05:06:47.433Z,99.99
2023-07-20T05:07:47.404Z,99.99
2023-07-20T05:08:47.383Z,99.99
2023-07-20T05:09:47.408Z,99.99
2023-07-20T05:10:47.406Z,99.99
2023-07-20T05:11:47.345Z,99.99
2023-07-20T05:12:47.339Z,99.99
2023-07-20T05:13:47.322Z,99.99
2023-07-20T05:14:47.322Z,99.99
2023-07-20T05:15:47.299Z,99.99
2023-07-20T05:16:47.354Z,99.99
2023-07-20T05:17:47.308Z,99.99
2023-07-20T05:18:47.279Z,99.99
2023-07-20T05:19:47.264Z,99.99
2023-07-20T05:20:47.259Z,99.99
2023-07-20T05:21:47.232Z,99.99
2023-07-20T05:22:47.296Z,99.99
2023-07-20T05:23:47.215Z,99.99
2023-07-20T05:24:47.195Z,99.99
2023-07-20T05:25:47.203Z,99.99
2023-07-20T05:26:47.175Z,99.99
2023-07-20T05:27:47.182Z,99.99
2023-07-20T05:28:47.217Z,99.99
2023-07-20T05:29:47.140Z,99.99
2023-07-20T05:30:47.142Z,98.83
2023-07-20T05:31:47.197Z,95.94
2023-07-20T05:32:47.189Z,94.98
2023-07-20T05:33:47.147Z,95.29
2023-07-20T05:34:47.109Z,95.19
2023-07-20T05:35:47.100Z,94.89
2023-07-20T05:36:47.068Z,96.22
2023-07-20T05:37:47.052Z,94.49
2023-07-20T05:38:47.082Z,93.29
2023-07-20T05:39:47.049Z,90.76
2023-07-20T05:40:47.027Z,92.09
2023-07-20T05:41:47.015Z,91.78
2023-07-20T05:42:47.001Z,90.62
2023-07-20T05:43:46.988Z,89.61
2023-07-20T05:44:46.995Z,89.65
2023-07-20T05:45:46.994Z,91.22
2023-07-20T05:46:57.313Z,88.09
2023-07-20T05:47:48.060Z,89.75
2023-07-20T05:48:46.943Z,89.40
2023-07-20T05:49:46.929Z,88.59
2023-07-20T05:50:46.916Z,88.25
2023-07-20T05:51:46.903Z,91.44
2023-07-20T05:52:46.886Z,89.64
2023-07-20T05:53:46.896Z,87.96
2023-07-20T05:54:46.918Z,86.79
2023-07-20T05:55:46.868Z,87.95
2023-07-20T05:56:46.877Z,87.70
2023-07-20T05:57:46.843Z,86.90
2023-07-20T05:58:46.825Z,85.94
2023-07-20T05:59:46.830Z,86.85
2023-07-20T06:00:46.826Z,88.77
2023-07-20T06:01:46.872Z,86.55
2023-07-20T06:02:46.810Z,84.99
2023-07-20T06:03:46.782Z,88.28
2023-07-20T06:04:46.759Z,86.16
2023-07-20T06:05:46.851Z,86.00
2023-07-20T06:06:46.773Z,87.32
2023-07-20T06:07:46.733Z,87.78
2023-07-20T06:08:46.717Z,86.36
2023-07-20T06:09:46.732Z,84.19
2023-07-20T06:10:46.733Z,86.10
2023-07-20T06:11:46.694Z,87.01
2023-07-20T06:12:46.693Z,85.46
2023-07-20T06:13:46.672Z,83.10
2023-07-20T06:14:46.677Z,84.91
2023-07-20T06:15:46.681Z,86.83
2023-07-20T06:16:46.739Z,83.46
2023-07-20T06:17:46.675Z,86.02
2023-07-20T06:18:46.626Z,86.79
2023-07-20T06:19:46.602Z,84.97
2023-07-20T06:20:46.580Z,85.74
2023-07-20T06:21:46.566Z,84.69
2023-07-20T06:22:46.606Z,84.63
2023-07-20T06:23:46.554Z,83.12
2023-07-20T06:24:46.536Z,84.43
2023-07-20T06:25:46.540Z,83.42
2023-07-20T06:26:46.543Z,82.98
2023-07-20T06:27:46.524Z,83.12
2023-07-20T06:28:46.491Z,82.35
2023-07-20T06:29:46.486Z,81.61
2023-07-20T06:30:46.472Z,84.43
2023-07-20T06:31:46.529Z,81.21
2023-07-20T06:32:46.559Z,83.69
2023-07-20T06:33:46.476Z,83.69
2023-07-20T06:34:46.437Z,82.98
2023-07-20T06:35:46.414Z,82.38
2023-07-20T06:36:46.403Z,80.77
2023-07-20T06:37:46.399Z,82.18
2023-07-20T06:40:32.693Z,82.18
2023-07-20T06:40:46.362Z,81.01
2023-07-20T06:41:46.342Z,83.02
2023-07-20T06:43:48.630Z,82.07
2023-07-20T06:44:46.329Z,82.74
2023-07-20T06:45:46.356Z,81.43
2023-07-20T06:46:46.306Z,81.53
2023-07-20T06:47:46.336Z,85.42
2023-07-20T06:49:46.260Z,81.49
2023-07-20T06:50:46.269Z,81.03
2023-07-20T06:51:46.238Z,80.36
2023-07-20T06:52:46.237Z,82.38
2023-07-20T06:53:46.216Z,84.05
2023-07-20T06:54:46.228Z,83.54
2023-07-20T06:56:46.777Z,82.90
2023-07-20T06:57:48.889Z,83.51
2023-07-20T06:58:46.196Z,82.86
2023-07-20T07:00:46.136Z,83.20
2023-07-20T07:01:46.145Z,84.91
2023-07-20T07:02:47.663Z,84.15
2023-07-20T07:03:46.124Z,86.57
2023-07-20T07:04:46.400Z,87.39
2023-07-20T07:05:51.130Z,83.76
2023-07-20T07:06:47.069Z,84.13
2023-07-20T07:07:46.080Z,84.19
2023-07-20T07:08:46.053Z,81.48
2023-07-20T07:09:46.044Z,84.13
2023-07-20T07:10:46.046Z,84.91
2023-07-20T07:11:46.020Z,85.38
2023-07-20T07:12:46.055Z,84.71
2023-07-20T07:13:47.486Z,84.57
2023-07-20T07:14:46.024Z,86.32
2023-07-20T07:15:46.028Z,86.38
2023-07-20T07:16:46.021Z,82.86
2023-07-20T07:17:45.992Z,85.39
2023-07-20T07:18:45.942Z,82.75
2023-07-20T07:19:49.126Z,80.04
2023-07-20T07:20:45.923Z,79.29
2023-07-20T07:21:45.912Z,79.46
2023-07-20T07:22:46.807Z,80.06
2023-07-20T07:23:45.946Z,80.77
2023-07-20T07:24:45.888Z,81.62
2023-07-20T07:25:45.875Z,82.68
2023-07-20T07:26:45.855Z,82.38
2023-07-20T07:27:45.844Z,81.68
2023-07-20T07:28:45.849Z,83.99
2023-07-20T07:29:45.829Z,82.40
2023-07-20T07:30:45.844Z,81.36
2023-07-20T07:31:45.816Z,81.60
2023-07-20T07:32:45.820Z,80.50
2023-07-20T07:33:45.771Z,80.40
2023-07-20T07:34:45.772Z,80.80
2023-07-20T07:35:45.757Z,83.13
2023-07-20T07:36:45.736Z,79.14
2023-07-20T07:37:57.345Z,79.25
2023-07-20T07:39:15.447Z,80.80
2023-07-20T07:39:46.727Z,81.00
2023-07-20T07:40:45.729Z,79.33
2023-07-20T07:41:45.694Z,80.51
2023-07-20T07:42:45.690Z,81.14
2023-07-20T07:43:45.667Z,81.46
2023-07-20T07:44:45.673Z,80.32
2023-07-20T07:45:45.654Z,79.92
2023-07-20T07:46:45.737Z,80.76
2023-07-20T07:47:45.676Z,80.22
2023-07-20T07:48:45.630Z,79.52
2023-07-20T07:49:47.233Z,80.46
2023-07-20T07:50:45.592Z,81.32
2023-07-20T07:51:45.580Z,82.41
2023-07-20T07:52:45.580Z,78.00
2023-07-20T07:53:45.593Z,79.68
2023-07-20T07:54:45.552Z,81.29
2023-07-20T07:55:45.530Z,79.58
2023-07-20T07:56:45.543Z,80.24
2023-07-20T07:57:45.547Z,79.71
2023-07-20T07:58:45.502Z,78.61
2023-07-20T07:59:45.482Z,79.02
2023-07-20T08:00:45.532Z,80.40
2023-07-20T08:01:45.466Z,80.90
2023-07-20T08:02:45.573Z,82.67
2023-07-20T08:03:45.491Z,80.62
2023-07-20T08:04:45.436Z,80.22
2023-07-20T08:05:45.443Z,80.40
2023-07-20T08:06:45.409Z,80.50
2023-07-20T08:07:45.408Z,80.83
2023-07-20T08:08:45.402Z,81.78
2023-07-20T08:09:45.542Z,81.98
2023-07-20T08:10:45.370Z,82.60
2023-07-20T08:11:45.358Z,80.46
2023-07-20T08:12:45.349Z,80.66
2023-07-20T08:13:45.336Z,80.57
2023-07-20T08:14:45.323Z,80.51
2023-07-20T08:15:45.329Z,82.84
2023-07-20T08:16:45.362Z,81.94
2023-07-20T08:17:45.443Z,80.83
2023-07-20T08:18:45.401Z,81.74
2023-07-20T08:19:45.285Z,83.95
2023-07-20T08:20:45.264Z,82.18
2023-07-20T08:21:45.248Z,84.35
2023-07-20T08:22:47.062Z,80.70
2023-07-20T08:23:45.235Z,80.70
2023-07-20T08:24:45.268Z,81.30
2023-07-20T08:25:45.216Z,80.66
2023-07-20T08:26:45.259Z,81.96
2023-07-20T08:27:45.184Z,78.22
2023-07-20T08:28:45.173Z,78.81
2023-07-20T08:29:45.168Z,79.02
2023-07-20T08:30:45.193Z,76.95
2023-07-20T08:31:45.150Z,80.40
2023-07-20T08:32:45.189Z,80.04
2023-07-20T08:33:45.115Z,81.80
2023-07-20T08:34:45.147Z,79.25
2023-07-20T08:35:45.092Z,79.16
2023-07-20T08:36:45.085Z,81.62
2023-07-20T08:37:45.071Z,78.15
2023-07-20T08:38:45.073Z,79.36
2023-07-20T08:39:45.056Z,76.51
2023-07-20T08:40:45.042Z,78.48
2023-07-20T08:41:45.053Z,78.11
2023-07-20T08:42:45.013Z,79.24
2023-07-20T08:43:45.000Z,76.67
2023-07-20T08:44:45.005Z,76.07
2023-07-20T08:45:44.996Z,76.71
2023-07-20T08:46:45.015Z,79.28
2023-07-20T08:47:45.000Z,76.67
2023-07-20T08:48:44.950Z,76.37
2023-07-20T08:49:44.937Z,75.81
2023-07-20T08:50:44.993Z,78.88
2023-07-20T08:51:44.913Z,74.54
2023-07-20T08:52:44.905Z,74.93
2023-07-20T08:53:44.892Z,73.16
2023-07-20T08:54:44.884Z,75.31
2023-07-20T08:55:44.871Z,74.77
2023-07-20T08:56:44.870Z,72.80
2023-07-20T08:57:44.851Z,74.71
2023-07-20T08:58:44.833Z,75.87
2023-07-20T08:59:44.844Z,74.80
2023-07-20T09:00:47.027Z,74.63
2023-07-20T09:01:44.834Z,72.92
2023-07-20T09:02:44.855Z,72.26
2023-07-20T09:03:44.794Z,69.56
2023-07-20T09:04:44.763Z,72.66
2023-07-20T09:05:44.781Z,68.02
2023-07-20T09:06:45.399Z,74.63
2023-07-20T09:07:44.743Z,72.36
2023-07-20T09:08:44.727Z,72.83
2023-07-20T09:09:44.766Z,70.73
2023-07-20T09:10:44.713Z,71.33
2023-07-20T09:11:44.693Z,69.93
2023-07-20T09:12:44.685Z,73.03
2023-07-20T09:13:44.691Z,75.16
2023-07-20T09:14:44.662Z,73.36
2023-07-20T09:15:44.654Z,71.62
2023-07-20T09:16:44.665Z,69.86
2023-07-20T09:17:45.883Z,69.59
2023-07-20T09:18:44.654Z,71.12
2023-07-20T09:19:44.606Z,73.49
2023-07-20T09:20:44.624Z,72.32
2023-07-20T09:21:44.584Z,71.49
2023-07-20T09:22:44.603Z,69.06
2023-07-20T09:23:44.576Z,70.65
2023-07-20T09:24:45.040Z,66.36
2023-07-20T09:25:44.545Z,69.29
2023-07-20T09:26:44.549Z,69.16
2023-07-20T09:27:44.517Z,70.65
2023-07-20T09:28:45.077Z,69.66
2023-07-20T09:29:44.499Z,68.53
2023-07-20T09:30:53.824Z,64.67
2023-07-20T09:31:45.512Z,67.43
2023-07-20T09:34:01.125Z,65.20
2023-07-20T09:34:49.125Z,66.17
2023-07-20T09:35:44.597Z,66.77
2023-07-20T09:37:44.429Z,65.37
2023-07-20T09:40:15.659Z,64.21
2023-07-20T09:41:46.388Z,65.87
2023-07-20T09:43:25.795Z,63.15
2023-07-20T09:43:45.376Z,63.78
2023-07-20T09:47:44.344Z,64.97
2023-07-20T09:49:29.163Z,63.85
2023-07-20T09:50:44.297Z,61.55
2023-07-20T09:51:44.256Z,62.34
2023-07-20T09:53:44.249Z,61.41
2023-07-20T09:54:44.264Z,61.02
2023-07-20T09:55:44.219Z,60.62
2023-07-20T09:56:44.207Z,59.68
2023-07-20T09:57:44.188Z,61.27
2023-07-20T09:58:44.204Z,62.61
2023-07-20T09:59:44.166Z,57.73
2023-07-20T10:01:44.205Z,58.15
2023-07-20T10:02:44.212Z,59.25
2023-07-20T10:03:44.124Z,58.83
2023-07-20T10:04:44.138Z,61.19
2023-07-20T10:05:44.179Z,58.03
2023-07-20T10:06:44.097Z,59.82
2023-07-20T10:07:44.079Z,61.27
2023-07-20T10:09:44.086Z,61.05
2023-07-20T10:10:44.116Z,58.53
2023-07-20T10:11:44.035Z,62.38
2023-07-20T10:12:44.212Z,63.38
2023-07-20T10:13:46.027Z,62.38
2023-07-20T10:14:44.012Z,60.99
2023-07-20T10:15:44.000Z,61.19
2023-07-20T10:16:44.031Z,62.75
2023-07-20T10:17:44.015Z,63.32
2023-07-20T10:18:43.965Z,61.99
2023-07-20T10:19:50.703Z,62.49
2023-07-20T10:21:44.399Z,59.81
2023-07-20T10:22:47.137Z,60.87
2023-07-20T10:23:43.906Z,61.27
2023-07-20T10:24:43.971Z,59.68
2023-07-20T10:25:43.925Z,62.66
2023-07-20T10:26:43.920Z,57.42
2023-07-20T10:27:43.862Z,61.16
2023-07-20T10:28:43.858Z,59.79
2023-07-20T10:29:43.833Z,61.09
2023-07-20T10:30:43.834Z,63.85
2023-07-20T10:31:43.877Z,62.99
2023-07-20T10:32:43.814Z,58.84
2023-07-20T10:33:43.800Z,61.58
2023-07-20T10:34:43.823Z,62.82
2023-07-20T10:35:43.794Z,65.68
2023-07-20T10:36:44.935Z,63.26
2023-07-20T10:37:43.748Z,60.74
2023-07-20T10:38:43.747Z,59.75
2023-07-20T10:39:43.770Z,61.24
2023-07-20T10:40:43.751Z,63.00
2023-07-20T10:41:43.717Z,60.28
2023-07-20T10:42:43.744Z,57.43
2023-07-20T10:43:43.694Z,59.12
2023-07-20T10:44:43.688Z,58.73
2023-07-20T10:45:43.662Z,60.71
2023-07-20T10:46:43.747Z,56.64
2023-07-20T10:47:43.653Z,58.83
2023-07-20T10:48:43.630Z,59.52
2023-07-20T10:49:43.624Z,58.90
2023-07-20T10:50:43.615Z,56.32
2023-07-20T10:51:43.618Z,57.01
2023-07-20T10:52:43.599Z,58.03
2023-07-20T10:53:43.596Z,59.82
2023-07-20T10:54:44.283Z,55.02
2023-07-20T10:55:43.558Z,55.57
2023-07-20T10:56:43.572Z,57.42
2023-07-20T10:57:43.541Z,57.39
2023-07-20T10:58:43.778Z,62.50
2023-07-20T10:59:45.356Z,54.33
2023-07-20T11:00:43.504Z,56.68
2023-07-20T11:01:43.502Z,59.36
2023-07-20T11:02:43.573Z,54.81
2023-07-20T11:04:43.617Z,57.53
2023-07-20T11:05:43.611Z,55.80
2023-07-20T11:06:43.437Z,56.48
2023-07-20T11:07:43.423Z,57.05
2023-07-20T11:08:43.451Z,59.44
2023-07-20T11:09:43.402Z,60.68
2023-07-20T11:10:43.394Z,54.83
2023-07-20T11:11:43.380Z,54.28
2023-07-20T11:12:43.386Z,55.51
2023-07-20T11:13:43.361Z,58.91
2023-07-20T11:14:43.395Z,54.63
2023-07-20T11:15:43.340Z,56.62
2023-07-20T11:16:43.476Z,53.76
2023-07-20T11:17:43.364Z,57.28
2023-07-20T11:18:43.329Z,54.71
2023-07-20T11:20:43.295Z,56.48
2023-07-20T11:21:56.169Z,57.57
2023-07-20T11:22:44.267Z,57.37
2023-07-20T11:23:43.257Z,58.24
2023-07-20T11:24:43.332Z,58.91
2023-07-20T11:25:43.236Z,53.94
2023-07-20T11:26:43.394Z,55.08
2023-07-20T11:27:43.230Z,59.66
2023-07-20T11:28:43.214Z,56.85
2023-07-20T11:29:43.209Z,55.48
2023-07-20T11:30:43.306Z,56.05
2023-07-20T11:31:43.167Z,56.15
2023-07-20T11:32:43.234Z,59.08
2023-07-20T11:33:43.144Z,57.76
2023-07-20T11:34:43.153Z,55.65
2023-07-20T11:35:43.142Z,56.96
2023-07-20T11:37:43.328Z,56.62
2023-07-20T11:38:43.310Z,54.13
2023-07-20T11:39:43.097Z,55.10
2023-07-20T11:40:43.072Z,55.50
2023-07-20T11:41:43.068Z,55.00
2023-07-20T11:43:43.039Z,55.74
2023-07-20T11:44:43.101Z,55.08
2023-07-20T11:45:43.015Z,56.17
2023-07-20T11:46:43.083Z,53.61
2023-07-20T11:47:43.134Z,52.84
2023-07-20T11:48:42.985Z,57.29
2023-07-20T11:49:43.048Z,58.26
2023-07-20T11:50:42.965Z,59.32
2023-07-20T11:51:42.952Z,57.04
2023-07-20T11:52:42.941Z,59.99
2023-07-20T11:53:42.946Z,56.44
2023-07-20T11:54:46.077Z,60.19
2023-07-20T11:55:43.908Z,57.64
2023-07-20T11:56:42.921Z,59.49
2023-07-20T11:57:42.886Z,58.87
2023-07-20T11:58:42.882Z,56.51
2023-07-20T11:59:42.884Z,58.57
2023-07-20T12:00:42.864Z,57.41
2023-07-20T12:01:42.888Z,62.54
2023-07-20T12:02:42.932Z,59.34
2023-07-20T12:03:42.832Z,55.62
2023-07-20T12:04:42.819Z,57.11
2023-07-20T12:06:42.788Z,57.70
2023-07-20T12:07:42.790Z,60.43
2023-07-20T12:08:42.780Z,57.53
2023-07-20T12:09:51.283Z,59.41
2023-07-20T12:10:43.747Z,58.22
2023-07-20T12:11:42.733Z,58.04
2023-07-20T12:12:42.921Z,59.23
2023-07-20T12:13:42.729Z,56.59
2023-07-20T12:14:42.701Z,58.54
2023-07-20T12:15:42.695Z,58.64
2023-07-20T12:16:42.794Z,57.28
2023-07-20T12:17:42.832Z,57.60
2023-07-20T12:18:42.750Z,59.27
2023-07-20T12:19:42.652Z,56.49
2023-07-20T12:20:42.640Z,57.28
2023-07-20T12:21:42.631Z,57.78
2023-07-20T12:22:42.616Z,57.75
2023-07-20T12:23:42.625Z,54.08
2023-07-20T12:24:42.706Z,56.09
2023-07-20T12:25:42.687Z,57.28
2023-07-20T12:26:42.579Z,57.48
2023-07-20T12:27:42.568Z,56.02
2023-07-20T12:28:42.558Z,56.02
2023-07-20T12:29:42.557Z,56.84
2023-07-20T12:30:42.564Z,55.85
2023-07-20T12:31:42.564Z,59.99
2023-07-20T12:32:42.589Z,60.46
2023-07-20T12:33:42.503Z,57.65
2023-07-20T12:34:42.536Z,61.86
2023-07-20T12:35:42.482Z,57.76
2023-07-20T12:36:42.463Z,55.83
2023-07-20T12:37:42.457Z,58.94
2023-07-20T12:38:42.447Z,55.96
2023-07-20T12:39:42.445Z,55.76
2023-07-20T12:40:42.444Z,56.26
2023-07-20T12:41:42.411Z,56.76
2023-07-20T12:42:42.407Z,56.41
2023-07-20T12:43:42.430Z,56.07
2023-07-20T12:44:42.396Z,58.60
2023-07-20T12:45:42.419Z,58.60
2023-07-20T12:46:42.393Z,57.21
2023-07-20T12:47:42.401Z,57.01
2023-07-20T12:48:42.373Z,56.61
2023-07-20T12:49:42.336Z,58.37
2023-07-20T12:50:42.346Z,59.14
2023-07-20T12:51:42.302Z,56.85
2023-07-20T12:52:42.296Z,56.46
2023-07-20T12:53:42.280Z,58.22
2023-07-20T12:54:42.326Z,57.29
2023-07-20T12:55:42.287Z,58.75
2023-07-20T12:57:42.260Z,56.43
2023-07-20T12:58:42.232Z,56.36
2023-07-20T12:59:42.249Z,56.16
2023-07-20T13:00:42.206Z,56.53
2023-07-20T13:01:42.277Z,58.39
2023-07-20T13:02:42.211Z,54.92
2023-07-20T13:04:42.178Z,57.15
2023-07-20T13:06:42.167Z,56.49
2023-07-20T13:08:42.127Z,58.07
2023-07-20T13:09:42.115Z,56.71
2023-07-20T13:10:42.110Z,55.62
2023-07-20T13:11:42.100Z,56.74
2023-07-20T13:12:42.091Z,58.20
2023-07-20T13:13:42.070Z,56.51
2023-07-20T13:14:42.057Z,59.79
2023-07-20T13:15:42.050Z,58.67
2023-07-20T13:16:42.045Z,59.23
2023-07-20T13:17:42.117Z,59.04
2023-07-20T13:18:42.007Z,58.51
2023-07-20T13:19:42.021Z,55.87
2023-07-20T13:20:42.010Z,58.72